createdAt,value
2019-02-24T00:01:58.453Z,155.93
2019-02-24T00:07:04.885Z,149.10
2019-02-24T00:12:09.884Z,141.57
2019-02-24T00:17:14.871Z,131.97
2019-02-24T00:22:20.067Z,146.23
2019-02-24T00:27:25.171Z,154.13
2019-02-24T00:32:30.165Z,164.83
2019-02-24T00:37:35.286Z,167.97
2019-02-24T00:42:40.313Z,141.03
2019-02-24T00:47:45.541Z,133.87
2019-02-24T00:52:50.520Z,150.27
2019-02-24T00:57:55.566Z,146.27
2019-02-24T01:03:00.571Z,135.93
2019-02-24T01:08:05.904Z,151.43
2019-02-24T01:13:10.916Z,168.10
2019-02-24T01:18:15.912Z,153.10
2019-02-24T01:23:20.943Z,151.10
2019-02-24T01:28:25.950Z,157.90
2019-02-24T01:33:30.942Z,193.40
2019-02-24T01:38:36.014Z,208.87
2019-02-24T01:43:41.016Z,275.03
2019-02-24T01:48:46.161Z,365.80
2019-02-24T01:53:53.051Z,410.77
2019-02-24T01:58:58.068Z,437.53
2019-02-24T02:04:03.354Z,459.17
2019-02-24T02:09:08.950Z,421.50
2019-02-24T02:14:13.930Z,426.77
2019-02-24T02:19:19.122Z,400.47
2019-02-24T02:24:24.174Z,381.97
2019-02-24T02:29:29.297Z,358.07
2019-02-24T02:34:34.318Z,286.60
2019-02-24T02:39:39.431Z,234.73
2019-02-24T02:44:44.433Z,319.47
2019-02-24T02:49:49.558Z,479.93
2019-02-24T02:54:54.679Z,488.33
2019-02-24T02:59:59.937Z,487.17
2019-02-24T03:05:05.705Z,448.53
2019-02-24T03:10:11.106Z,426.47
2019-02-24T03:15:16.115Z,423.87
2019-02-24T03:20:21.093Z,412.53
2019-02-24T03:25:26.084Z,415.20
2019-02-24T03:30:31.106Z,420.17
2019-02-24T03:35:36.156Z,425.07
2019-02-24T03:40:41.111Z,418.73
2019-02-24T03:45:46.424Z,409.80
2019-02-24T03:50:51.479Z,421.40
2019-02-24T03:55:57.645Z,408.53
2019-02-24T04:01:02.878Z,407.77
2019-02-24T04:06:08.012Z,406.63
2019-02-24T04:11:13.057Z,405.23
2019-02-24T04:16:18.136Z,422.93
2019-02-24T04:21:23.129Z,452.93
2019-02-24T04:26:28.156Z,454.53
2019-02-24T04:31:33.153Z,455.43
2019-02-24T04:36:38.172Z,447.73
2019-02-24T04:41:43.171Z,447.07
2019-02-24T04:46:48.446Z,425.70
2019-02-24T04:51:53.494Z,383.00
2019-02-24T04:57:00.786Z,347.23
2019-02-24T05:02:05.796Z,332.57
2019-02-24T05:07:10.856Z,274.40
2019-02-24T05:12:15.844Z,227.13
2019-02-24T05:17:20.853Z,237.10
2019-02-24T05:22:25.968Z,246.77
2019-02-24T05:27:31.005Z,269.97
2019-02-24T05:32:36.049Z,257.13
2019-02-24T05:37:41.068Z,376.90
2019-02-24T05:42:47.993Z,404.97
2019-02-24T05:47:52.725Z,328.23
2019-02-24T05:52:57.714Z,282.63
2019-02-24T05:58:03.017Z,226.00
2019-02-24T06:03:08.041Z,159.00
2019-02-24T06:08:13.083Z,146.37
2019-02-24T06:13:18.112Z,186.47
2019-02-24T06:18:23.131Z,277.17
2019-02-24T06:23:28.148Z,298.33
2019-02-24T06:28:33.396Z,323.20
2019-02-24T06:33:38.466Z,304.40
2019-02-24T06:38:43.492Z,322.40
2019-02-24T06:43:49.491Z,341.07
2019-02-24T06:48:54.746Z,218.33
2019-02-24T06:53:59.744Z,310.17
2019-02-24T06:59:04.834Z,390.13
2019-02-24T07:04:09.831Z,359.83
2019-02-24T07:09:14.967Z,378.47
2019-02-24T07:14:20.217Z,344.97
2019-02-24T07:19:25.189Z,372.83
2019-02-24T07:24:30.188Z,340.77
2019-02-24T07:29:35.469Z,250.83
2019-02-24T07:34:40.466Z,205.80
2019-02-24T07:39:45.542Z,188.23
2019-02-24T07:44:50.564Z,188.17
2019-02-24T07:49:55.693Z,184.27
2019-02-24T07:55:00.682Z,185.37
2019-02-24T08:00:06.521Z,207.20
2019-02-24T08:05:11.562Z,223.50
2019-02-24T08:10:16.552Z,198.97
2019-02-24T08:15:21.536Z,251.60
2019-02-24T08:20:26.565Z,242.70
2019-02-24T08:25:31.536Z,253.20
2019-02-24T08:30:41.661Z,323.23
2019-02-24T08:35:43.117Z,340.83
2019-02-24T08:40:48.154Z,331.80
2019-02-24T08:45:53.140Z,367.03
2019-02-24T08:50:58.194Z,360.67
2019-02-24T08:56:03.216Z,373.80
2019-02-24T09:01:08.204Z,417.50
2019-02-24T09:06:13.208Z,467.27
2019-02-24T09:11:18.201Z,617.57
2019-02-24T09:16:23.198Z,609.47
2019-02-24T09:21:28.215Z,561.47
2019-02-24T09:26:33.313Z,587.07
2019-02-24T09:31:38.368Z,593.07
2019-02-24T09:36:43.377Z,558.13
2019-02-24T09:41:48.376Z,565.57
2019-02-24T09:46:53.354Z,563.80
2019-02-24T09:51:58.342Z,547.43
2019-02-24T09:57:03.352Z,553.60
2019-02-24T10:02:08.354Z,565.73
2019-02-24T10:07:13.336Z,513.67
2019-02-24T10:12:18.391Z,483.60
2019-02-24T10:17:23.547Z,479.67
2019-02-24T10:22:28.550Z,418.47
2019-02-24T10:27:33.535Z,399.30
2019-02-24T10:32:38.575Z,363.73
2019-02-24T10:37:43.560Z,379.80
2019-02-24T10:42:49.562Z,371.77
2019-02-24T10:47:54.557Z,365.57
2019-02-24T10:52:59.637Z,362.07
2019-02-24T10:58:04.644Z,335.83
2019-02-24T11:03:09.627Z,314.47
2019-02-24T11:08:16.941Z,311.90
2019-02-24T11:13:21.930Z,323.47
2019-02-24T11:18:26.916Z,333.37
2019-02-24T11:23:31.959Z,340.17
2019-02-24T11:28:37.302Z,311.13
2019-02-24T11:33:42.297Z,254.37
2019-02-24T11:38:47.828Z,130.83
2019-02-24T11:43:52.804Z,143.23
2019-02-24T11:48:58.116Z,191.77
2019-02-24T11:54:03.167Z,218.77
2019-02-24T11:59:08.188Z,191.43
2019-02-24T12:04:13.205Z,207.63
2019-02-24T12:09:18.412Z,129.93
2019-02-24T12:14:23.387Z,145.17
2019-02-24T12:19:28.422Z,131.60
2019-02-24T12:24:33.443Z,136.13
2019-02-24T12:29:40.369Z,151.50
2019-02-24T12:34:45.327Z,131.53
2019-02-24T12:39:50.501Z,161.27
2019-02-24T12:44:55.495Z,157.73
2019-02-24T12:50:03.334Z,177.17
2019-02-24T12:55:08.109Z,165.07
2019-02-24T13:00:16.821Z,135.07
2019-02-24T13:05:21.928Z,119.33
2019-02-24T13:10:27.220Z,102.60
2019-02-24T13:15:32.435Z,92.00
2019-02-24T13:20:37.461Z,87.90
2019-02-24T13:25:42.451Z,85.57
2019-02-24T13:30:47.661Z,78.17
2019-02-24T13:35:52.725Z,74.83
2019-02-24T13:40:57.717Z,69.47
2019-02-24T13:46:02.716Z,69.77
2019-02-24T13:51:07.752Z,62.70
2019-02-24T13:56:12.813Z,98.33
2019-02-24T14:01:17.937Z,103.37
2019-02-24T14:06:23.717Z,199.60
2019-02-24T14:11:28.708Z,198.43
2019-02-24T14:16:33.774Z,176.30
2019-02-24T14:21:38.784Z,129.87
2019-02-24T14:26:43.832Z,223.30
2019-02-24T14:31:48.872Z,208.17
2019-02-24T14:36:53.931Z,231.63
2019-02-24T14:41:58.952Z,298.07
2019-02-24T14:47:04.053Z,244.07
2019-02-24T14:52:09.088Z,219.73
2019-02-24T14:57:14.161Z,243.03
2019-02-24T15:02:19.201Z,210.37
2019-02-24T15:07:24.231Z,202.37
2019-02-24T15:12:29.263Z,154.73
2019-02-24T15:17:34.589Z,166.33
2019-02-24T15:22:39.629Z,146.67
2019-02-24T15:27:44.660Z,96.07
2019-02-24T15:32:51.962Z,90.80
2019-02-24T15:37:56.492Z,79.47
2019-02-24T15:43:01.526Z,88.73
2019-02-24T15:48:06.669Z,89.00
2019-02-24T15:53:11.822Z,77.93
2019-02-24T15:58:17.874Z,72.77
2019-02-24T16:03:23.076Z,94.53
2019-02-24T16:08:28.093Z,60.80
2019-02-24T16:13:33.137Z,55.07
2019-02-24T16:18:38.168Z,64.57
2019-02-24T16:23:43.184Z,76.43
2019-02-24T16:28:48.221Z,73.90
2019-02-24T16:33:53.370Z,77.80
2019-02-24T16:38:58.421Z,67.33
2019-02-24T16:44:03.581Z,54.77
2019-02-24T16:49:09.144Z,45.73
2019-02-24T16:54:14.185Z,54.97
2019-02-24T16:59:19.401Z,73.43
2019-02-24T17:04:25.052Z,77.77
2019-02-24T17:09:30.081Z,102.47
2019-02-24T17:14:35.125Z,98.43
2019-02-24T17:19:41.020Z,71.80
2019-02-24T17:24:46.108Z,68.40
2019-02-24T17:29:51.340Z,88.67
2019-02-24T17:34:56.352Z,138.80
2019-02-24T17:40:06.740Z,202.17
2019-02-24T17:45:12.901Z,306.63
2019-02-24T17:50:17.924Z,403.80
2019-02-24T17:55:23.213Z,442.93
2019-02-24T18:00:30.965Z,463.30
2019-02-24T18:05:36.125Z,473.80
2019-02-24T18:10:41.384Z,500.80
2019-02-24T18:15:46.399Z,489.97
2019-02-24T18:20:51.614Z,507.50
2019-02-24T18:25:56.774Z,538.13
2019-02-24T18:31:06.540Z,567.30
2019-02-24T18:36:12.258Z,591.97
2019-02-24T18:41:17.528Z,571.80
2019-02-24T18:46:22.537Z,556.30
2019-02-24T18:51:27.584Z,526.10
2019-02-24T18:56:32.612Z,528.70
2019-02-24T19:01:37.632Z,501.33
2019-02-24T19:06:42.631Z,482.90
2019-02-24T19:11:47.649Z,464.40
2019-02-24T19:16:52.700Z,471.63
2019-02-24T19:21:57.705Z,445.57
2019-02-24T19:27:02.727Z,429.80
2019-02-24T19:32:07.784Z,444.87
2019-02-24T19:37:12.956Z,445.73
2019-02-24T19:42:18.077Z,435.07
2019-02-24T19:52:28.483Z,440.00
2019-02-24T19:57:33.900Z,463.73
2019-02-24T20:02:38.926Z,459.30
2019-02-24T20:07:44.009Z,442.43
2019-02-24T20:12:49.021Z,466.83
2019-02-24T20:17:54.237Z,509.17
2019-02-24T20:22:59.272Z,501.60
2019-02-24T20:28:04.284Z,488.80
2019-02-24T20:33:09.300Z,453.97
2019-02-24T20:38:14.313Z,435.97
2019-02-24T20:43:19.371Z,410.90
2019-02-24T20:48:24.384Z,413.40
2019-02-24T20:53:29.439Z,450.13
2019-02-24T20:58:34.732Z,402.60
2019-02-24T21:03:40.461Z,405.50
2019-02-24T21:08:45.650Z,425.97
2019-02-24T21:13:50.688Z,427.03
2019-02-24T21:18:55.978Z,486.80
2019-02-24T21:24:01.060Z,491.87
2019-02-24T21:29:06.084Z,471.70
2019-02-24T21:34:11.416Z,407.30
2019-02-24T21:39:17.311Z,402.70
2019-02-24T21:44:22.313Z,393.73
2019-02-24T21:49:27.511Z,353.80
2019-02-24T21:54:32.685Z,309.37
2019-02-24T21:59:37.955Z,270.40
2019-02-24T22:04:42.959Z,255.23
2019-02-24T22:09:48.169Z,281.97
2019-02-24T22:14:53.192Z,235.20
2019-02-24T22:19:58.468Z,196.83
2019-02-24T22:25:03.532Z,127.03
2019-02-24T22:30:10.764Z,134.03
2019-02-24T22:35:15.788Z,124.40
2019-02-24T22:40:21.026Z,143.87
2019-02-24T22:45:26.104Z,171.67
2019-02-24T22:50:31.631Z,236.60
2019-02-24T22:55:36.804Z,325.07
2019-02-24T23:01:00.401Z,374.03
2019-02-24T23:06:06.119Z,508.20
2019-02-24T23:11:11.550Z,462.80
2019-02-24T23:16:16.566Z,413.30
2019-02-24T23:21:22.704Z,418.67
2019-02-24T23:26:28.228Z,358.90
2019-02-24T23:31:33.252Z,319.93
2019-02-24T23:36:39.778Z,318.03
2019-02-24T23:41:45.267Z,320.13
2019-02-24T23:46:50.412Z,316.60
2019-02-24T23:51:55.924Z,354.90
2019-02-24T23:57:01.051Z,410.70
